Aeroporto :
LOGIN :

Iscrizione | Disclaimer

   EN    FR    IT 

 










Sommario :    VFR   VFR Marginale   IFR   IFR Intensivo   IFR Molto Intensivo
Visibilità : 
Base nubi : 
>= 8 km
>= 3000ft
5 / 8 km
1000 / 3000 ft
1500m / 5 km
500 / 1000 ft
800 / 1500m
200 / 500 ft
< 800m
< 200 ft
Simboli :   Temporali  Nebbia  Neve Forte  Precipitazioni Forti  Vento > 20 kt
SIGMETs :   Varie  Temporali  Ghiacco  Turbolenza  Onda orograficha  Ceneri Vulcaniche







- Altitudine del aeroporto : 600 ft
- Codice IATA : VIE


LOWW - Vienna Schwechat

ULTIMO METAR :
  • 252120Z 16007KT CAVOK 22/19 Q1024 NOSIG

METARs OBSOLETI :
  • 252050Z 15007KT CAVOK 23/19 Q1024 NOSIG
  • 252020Z 14007KT CAVOK 24/19 Q1024 NOSIG
  • 251950Z 14008KT CAVOK 26/19 Q1024 NOSIG
  • 251920Z 14008KT CAVOK 26/19 Q1023 NOSIG
  • 251850Z 14005KT CAVOK 27/19 Q1023 NOSIG

TAF TAF LOWW
Valido dal 25 a 21 ore il 27 a 03 ore UTC


252015Z 2521/2703 14004KT CAVOK TX35/2614Z TN21/2603Z
BECMG 2605/2607 14010KT 9999 FEW030
BECMG 2610/2612 CAVOK
BECMG 2618/2621 21005KT
Nessun NOTAM noto per questo aeroporto.



MetMap, La meteo Aeronautica in un colpo d'occhio ! - Copyright ORBIFLY Dicembre 2007 - Disclaimer

ORBIFLY MET'MAP TEAM :

Programmazione e sviluppo : Alexandra Zaïnal
Concezione e sviluppo : Baudouin d'Aumeries
Co-Programmazione e sviluppo : Marc-Olivier Méhu
Supporto tecnico e logistico : Manuel Goepfert
Aiuto per la traduzione : Arnaldo La Scala

Contatto : metmap@orbifly.com




FONTI E CREDITI :

   NOAA